createdAt,value
2023-03-17T00:01:38.504Z,2.20
2023-03-17T00:04:05.025Z,2.20
2023-03-17T00:06:31.472Z,2.93
2023-03-17T00:08:57.888Z,2.88
2023-03-17T00:11:24.276Z,2.94
2023-03-17T00:13:50.635Z,2.68
2023-03-17T00:16:17.099Z,2.45
2023-03-17T00:18:43.567Z,2.17
2023-03-17T00:21:09.996Z,2.46
2023-03-17T00:23:36.435Z,2.23
2023-03-17T00:26:02.841Z,2.44
2023-03-17T00:28:29.230Z,2.43
2023-03-17T00:30:55.618Z,2.54
2023-03-17T00:33:22.032Z,2.48
2023-03-17T00:35:48.472Z,2.23
2023-03-17T00:38:14.839Z,1.88
2023-03-17T00:40:41.181Z,1.84
2023-03-17T00:43:07.526Z,1.96
2023-03-17T00:45:33.901Z,3.43
2023-03-17T00:48:00.252Z,2.15
2023-03-17T00:50:26.647Z,2.19
2023-03-17T00:52:53.071Z,2.15
2023-03-17T00:55:19.533Z,2.16
2023-03-17T00:57:45.845Z,2.50
2023-03-17T01:00:12.234Z,2.74
2023-03-17T01:02:38.622Z,2.74
2023-03-17T01:05:06.753Z,2.83
2023-03-17T01:07:33.464Z,3.05
2023-03-17T01:09:59.929Z,2.77
2023-03-17T01:12:26.292Z,2.74
2023-03-17T01:14:52.701Z,2.83
2023-03-17T01:17:19.142Z,3.11
2023-03-17T01:19:45.542Z,2.89
2023-03-17T01:22:11.945Z,3.27
2023-03-17T01:24:38.414Z,5.09
2023-03-17T01:27:04.781Z,7.07
2023-03-17T01:29:31.221Z,6.18
2023-03-17T01:31:57.605Z,4.39
2023-03-17T01:34:24.004Z,4.17
2023-03-17T01:36:50.362Z,5.89
2023-03-17T01:39:16.829Z,5.81
2023-03-17T01:41:43.145Z,4.77
2023-03-17T01:44:09.584Z,4.23
2023-03-17T01:46:35.950Z,3.71
2023-03-17T01:49:02.337Z,2.89
2023-03-17T01:51:28.744Z,2.84
2023-03-17T01:53:55.224Z,2.53
2023-03-17T01:56:21.638Z,2.90
2023-03-17T01:58:48.034Z,2.82
2023-03-17T02:01:14.543Z,2.79
2023-03-17T02:03:40.913Z,2.99
2023-03-17T02:06:07.362Z,3.12
2023-03-17T02:08:33.725Z,2.98
2023-03-17T02:11:00.178Z,3.12
2023-03-17T02:13:26.556Z,2.94
2023-03-17T02:15:52.938Z,3.14
2023-03-17T02:18:19.304Z,3.13
2023-03-17T02:20:45.671Z,3.49
2023-03-17T02:23:12.016Z,7.61
2023-03-17T02:25:38.436Z,5.27
2023-03-17T02:28:04.809Z,4.73
2023-03-17T02:30:31.421Z,4.77
2023-03-17T02:32:57.959Z,4.52
2023-03-17T02:35:24.397Z,4.58
2023-03-17T02:37:50.802Z,4.50
2023-03-17T02:40:17.185Z,4.30
2023-03-17T02:42:43.565Z,3.55
2023-03-17T02:45:09.980Z,3.44
2023-03-17T02:47:36.388Z,3.02
2023-03-17T02:50:02.866Z,6.03
2023-03-17T02:52:29.307Z,9.95
2023-03-17T02:54:55.736Z,9.32
2023-03-17T02:57:22.091Z,5.78
2023-03-17T02:59:48.529Z,3.50
2023-03-17T03:02:14.905Z,2.65
2023-03-17T03:04:41.350Z,2.36
2023-03-17T03:07:07.731Z,3.41
2023-03-17T03:09:34.163Z,4.91
2023-03-17T03:12:00.606Z,5.22
2023-03-17T03:14:26.984Z,5.21
2023-03-17T03:16:53.358Z,3.88
2023-03-17T03:19:19.795Z,3.75
2023-03-17T03:21:46.232Z,3.69
2023-03-17T03:24:12.762Z,3.43
2023-03-17T03:26:39.156Z,4.54
2023-03-17T03:29:05.599Z,5.99
2023-03-17T03:31:32.191Z,5.22
2023-03-17T03:33:58.649Z,5.13
2023-03-17T03:36:25.005Z,9.20
2023-03-17T03:38:51.396Z,5.89
2023-03-17T03:41:17.769Z,4.69
2023-03-17T03:43:45.338Z,5.19
2023-03-17T03:46:11.774Z,5.32
2023-03-17T03:48:38.130Z,6.05
2023-03-17T03:51:04.492Z,5.34
2023-03-17T03:53:32.148Z,3.63
2023-03-17T03:55:58.523Z,3.37
2023-03-17T03:58:24.892Z,4.06
2023-03-17T04:00:51.308Z,5.34
2023-03-17T04:03:17.711Z,5.96
2023-03-17T04:05:44.129Z,4.44
2023-03-17T04:08:10.569Z,4.05
2023-03-17T04:10:37.125Z,4.06
2023-03-17T04:13:03.532Z,4.10
2023-03-17T04:15:29.872Z,3.84
2023-03-17T04:17:56.246Z,3.81
2023-03-17T04:20:22.633Z,4.21
2023-03-17T04:22:49.000Z,7.16
2023-03-17T04:25:15.422Z,10.01
2023-03-17T04:27:41.803Z,7.41
2023-03-17T04:30:08.249Z,6.23
2023-03-17T04:32:34.687Z,5.75
2023-03-17T04:35:01.118Z,7.98
2023-03-17T04:37:27.542Z,7.93
2023-03-17T04:39:53.955Z,7.72
2023-03-17T04:42:20.300Z,6.01
2023-03-17T04:44:46.664Z,3.28
2023-03-17T04:47:13.068Z,3.54
2023-03-17T04:49:39.451Z,3.69
2023-03-17T04:52:05.857Z,4.59
2023-03-17T04:54:32.407Z,3.40
2023-03-17T04:56:58.758Z,3.32
2023-03-17T04:59:25.162Z,4.08
2023-03-17T05:01:51.584Z,4.34
2023-03-17T05:04:30.724Z,3.93
2023-03-17T05:06:58.205Z,3.08
2023-03-17T05:09:24.692Z,2.89
2023-03-17T05:11:51.100Z,3.98
2023-03-17T05:14:17.443Z,3.97
2023-03-17T05:16:43.853Z,3.81
2023-03-17T05:19:10.321Z,3.83
2023-03-17T05:21:36.667Z,4.18
2023-03-17T05:24:03.086Z,4.38
2023-03-17T05:26:29.466Z,4.73
2023-03-17T05:28:55.913Z,5.75
2023-03-17T05:31:22.394Z,6.56
2023-03-17T05:33:48.807Z,6.38
2023-03-17T05:36:15.131Z,7.63
2023-03-17T05:38:41.480Z,6.66
2023-03-17T05:41:07.892Z,4.94
2023-03-17T05:43:34.328Z,4.23
2023-03-17T05:46:00.860Z,3.74
2023-03-17T05:48:27.284Z,2.90
2023-03-17T05:50:53.661Z,3.39
2023-03-17T05:53:20.035Z,3.71
2023-03-17T05:55:46.507Z,3.61
2023-03-17T05:58:12.890Z,4.52
2023-03-17T06:00:39.251Z,4.67
2023-03-17T06:03:05.595Z,4.69
2023-03-17T06:05:31.985Z,4.25
2023-03-17T06:07:58.316Z,4.21
2023-03-17T06:10:24.739Z,4.06
2023-03-17T06:12:51.141Z,4.42
2023-03-17T06:15:17.574Z,4.69
2023-03-17T06:17:43.973Z,4.91
2023-03-17T06:20:10.334Z,4.49
2023-03-17T06:22:36.732Z,4.87
2023-03-17T06:25:03.180Z,4.68
2023-03-17T06:27:29.604Z,4.32
2023-03-17T06:29:55.997Z,4.85
2023-03-17T06:32:22.427Z,5.21
2023-03-17T06:34:48.968Z,6.90
2023-03-17T06:37:15.446Z,6.37
2023-03-17T06:39:41.984Z,6.13
2023-03-17T06:42:08.348Z,5.86
2023-03-17T06:44:34.783Z,6.59
2023-03-17T06:47:01.177Z,7.21
2023-03-17T06:49:27.550Z,9.02
2023-03-17T06:51:53.958Z,9.90
2023-03-17T06:54:20.364Z,9.46
2023-03-17T06:56:46.872Z,8.54
2023-03-17T06:59:15.623Z,8.18
2023-03-17T07:01:42.172Z,9.46
2023-03-17T07:04:08.667Z,8.95
2023-03-17T07:06:35.099Z,9.32
2023-03-17T07:09:02.364Z,9.70
2023-03-17T07:11:28.877Z,9.91
2023-03-17T07:13:55.300Z,9.78
2023-03-17T07:16:21.776Z,10.73
2023-03-17T07:18:48.172Z,9.42
2023-03-17T07:21:14.509Z,8.65
2023-03-17T07:23:40.873Z,9.06
2023-03-17T07:26:07.315Z,10.34
2023-03-17T07:28:33.777Z,9.54
2023-03-17T07:31:00.262Z,7.38
2023-03-17T07:33:26.668Z,7.97
2023-03-17T07:35:53.250Z,8.65
2023-03-17T07:38:19.710Z,8.10
2023-03-17T07:40:46.105Z,7.36
2023-03-17T07:43:12.504Z,7.12
2023-03-17T07:45:38.913Z,7.14
2023-03-17T07:48:05.418Z,7.23
2023-03-17T07:50:31.838Z,7.48
2023-03-17T07:52:58.214Z,7.99
2023-03-17T07:55:24.673Z,7.83
2023-03-17T07:57:51.138Z,8.08
2023-03-17T08:00:17.575Z,8.20
2023-03-17T08:02:44.006Z,8.55
2023-03-17T08:05:10.641Z,9.36
2023-03-17T08:07:37.059Z,9.75
2023-03-17T08:10:03.435Z,9.08
2023-03-17T08:12:29.865Z,8.81
2023-03-17T08:14:56.236Z,10.32
2023-03-17T08:17:22.610Z,10.47
2023-03-17T08:19:49.008Z,10.79
2023-03-17T08:22:15.474Z,10.49
2023-03-17T08:24:41.925Z,10.37
2023-03-17T08:27:08.379Z,10.50
2023-03-17T08:29:34.740Z,10.10
2023-03-17T08:32:01.109Z,9.72
2023-03-17T08:34:27.563Z,10.13
2023-03-17T08:36:53.939Z,10.20
2023-03-17T08:39:20.334Z,10.66
2023-03-17T08:41:46.732Z,10.39
2023-03-17T08:44:13.084Z,10.94
2023-03-17T08:46:39.500Z,10.59
2023-03-17T08:49:05.993Z,10.14
2023-03-17T08:51:32.416Z,10.67
2023-03-17T08:53:58.828Z,10.42
2023-03-17T08:56:25.217Z,10.63
2023-03-17T08:58:51.624Z,10.52
2023-03-17T09:01:17.999Z,10.96
2023-03-17T09:03:44.424Z,10.90
2023-03-17T09:06:10.874Z,10.85
2023-03-17T09:08:37.310Z,11.16
2023-03-17T09:11:03.954Z,11.34
2023-03-17T09:13:30.355Z,10.91
2023-03-17T09:15:56.763Z,10.93
2023-03-17T09:18:23.182Z,10.55
2023-03-17T09:20:49.673Z,11.08
2023-03-17T09:23:16.039Z,11.73
2023-03-17T09:25:42.400Z,11.16
2023-03-17T09:28:08.806Z,11.10
2023-03-17T09:30:35.215Z,10.80
2023-03-17T09:33:01.689Z,10.91
2023-03-17T09:35:28.284Z,10.83
2023-03-17T09:37:54.651Z,12.49
2023-03-17T09:40:21.128Z,13.26
2023-03-17T09:42:47.625Z,13.49
2023-03-17T09:45:14.035Z,12.51
2023-03-17T09:47:42.655Z,12.09
2023-03-17T09:50:09.271Z,12.35
2023-03-17T09:52:35.635Z,13.01
2023-03-17T09:55:02.032Z,12.72
2023-03-17T09:57:28.374Z,12.00
2023-03-17T09:59:54.884Z,11.77
2023-03-17T10:02:21.325Z,12.17
2023-03-17T10:04:47.768Z,11.65
2023-03-17T10:07:14.232Z,11.68
2023-03-17T10:09:40.701Z,11.59
2023-03-17T10:12:07.068Z,11.32
2023-03-17T10:14:33.512Z,11.28
2023-03-17T10:17:00.021Z,11.61
2023-03-17T10:19:26.396Z,11.15
2023-03-17T10:21:52.781Z,11.90
2023-03-17T10:24:19.199Z,11.65
2023-03-17T10:26:45.598Z,12.06
2023-03-17T10:29:11.962Z,12.26
2023-03-17T10:31:38.503Z,12.71
2023-03-17T10:34:04.959Z,12.86
2023-03-17T10:36:31.388Z,13.32
2023-03-17T10:38:57.834Z,13.43
2023-03-17T10:41:24.214Z,13.30
2023-03-17T10:43:50.735Z,13.66
2023-03-17T10:46:17.175Z,13.65
2023-03-17T10:48:43.648Z,12.72
2023-03-17T10:51:10.154Z,13.38
2023-03-17T10:53:36.543Z,13.43
2023-03-17T10:56:02.952Z,14.40
2023-03-17T10:58:29.347Z,13.39
2023-03-17T11:00:55.815Z,12.89
2023-03-17T11:03:22.291Z,14.41
2023-03-17T11:05:48.701Z,13.84
2023-03-17T11:08:15.054Z,13.36
2023-03-17T11:10:41.468Z,13.49
2023-03-17T11:13:07.821Z,13.97
2023-03-17T11:15:34.200Z,13.85
2023-03-17T11:18:00.558Z,13.31
2023-03-17T11:20:26.932Z,12.28
2023-03-17T11:22:53.293Z,12.20
2023-03-17T11:25:22.419Z,11.97
2023-03-17T11:27:48.761Z,12.05
2023-03-17T11:30:15.256Z,13.15
2023-03-17T11:32:41.708Z,13.60
2023-03-17T11:35:08.156Z,14.00
2023-03-17T11:37:34.507Z,14.18
2023-03-17T11:40:02.197Z,14.09
2023-03-17T11:42:28.631Z,13.23
2023-03-17T11:44:54.983Z,12.95
2023-03-17T11:47:21.364Z,12.24
2023-03-17T11:49:47.802Z,12.14
2023-03-17T11:52:14.159Z,12.85
2023-03-17T11:54:40.539Z,13.09
2023-03-17T11:57:06.935Z,11.65
2023-03-17T11:59:33.370Z,11.24
2023-03-17T12:01:59.739Z,10.54
2023-03-17T12:04:26.172Z,10.15
2023-03-17T12:06:52.620Z,9.90
2023-03-17T12:09:18.953Z,9.81
2023-03-17T12:11:45.340Z,9.77
2023-03-17T12:14:11.782Z,9.63
2023-03-17T12:16:38.172Z,9.37
2023-03-17T12:19:04.531Z,8.87
2023-03-17T12:21:30.923Z,9.37
2023-03-17T12:23:57.277Z,9.14
2023-03-17T12:26:23.735Z,10.38
2023-03-17T12:28:50.256Z,9.92
2023-03-17T12:31:16.652Z,9.07
2023-03-17T12:33:43.207Z,7.34
2023-03-17T12:36:09.653Z,4.43
2023-03-17T12:38:36.094Z,3.32
2023-03-17T12:41:02.522Z,4.08
2023-03-17T12:43:28.956Z,6.72
2023-03-17T12:45:55.345Z,5.31
2023-03-17T12:48:21.762Z,8.12
2023-03-17T12:50:48.159Z,9.29
2023-03-17T12:53:14.601Z,9.73
2023-03-17T12:55:41.005Z,9.27
2023-03-17T12:58:07.388Z,9.33
2023-03-17T13:00:33.730Z,8.85
2023-03-17T13:03:00.109Z,5.60
2023-03-17T13:05:26.491Z,3.84
2023-03-17T13:07:52.878Z,3.51
2023-03-17T13:10:19.285Z,3.82
2023-03-17T13:12:45.721Z,4.13
2023-03-17T13:15:12.070Z,3.72
2023-03-17T13:17:38.477Z,3.34
2023-03-17T13:20:04.846Z,3.34
2023-03-17T13:22:31.198Z,3.38
2023-03-17T13:24:57.601Z,3.72
2023-03-17T13:27:23.953Z,3.25
2023-03-17T13:29:50.338Z,3.45
2023-03-17T13:32:16.720Z,4.34
2023-03-17T13:34:43.204Z,3.74
2023-03-17T13:37:09.605Z,3.98
2023-03-17T13:39:35.958Z,4.03
2023-03-17T13:42:08.764Z,3.23
2023-03-17T13:44:43.738Z,3.51
2023-03-17T13:47:10.136Z,4.06
2023-03-17T13:49:36.612Z,4.26
2023-03-17T13:52:03.044Z,5.72
2023-03-17T13:54:29.433Z,5.76
2023-03-17T13:56:55.800Z,5.04
2023-03-17T13:59:22.159Z,4.31
2023-03-17T14:01:48.553Z,3.86
2023-03-17T14:04:15.063Z,3.67
2023-03-17T14:06:41.473Z,3.38
2023-03-17T14:09:07.944Z,3.46
2023-03-17T14:11:34.322Z,3.39
2023-03-17T14:14:00.720Z,3.81
2023-03-17T14:16:27.198Z,3.55
2023-03-17T14:18:53.574Z,3.43
2023-03-17T14:21:19.953Z,3.19
2023-03-17T14:23:46.352Z,3.13
2023-03-17T14:26:12.798Z,3.23
2023-03-17T14:28:39.143Z,3.21
2023-03-17T14:31:05.546Z,3.07
2023-03-17T14:33:31.965Z,3.25
2023-03-17T14:35:58.425Z,3.03
2023-03-17T14:38:24.866Z,3.12
2023-03-17T14:40:51.462Z,2.90
2023-03-17T14:43:17.867Z,2.86
2023-03-17T14:45:45.417Z,2.73
2023-03-17T14:48:11.886Z,3.06
2023-03-17T14:50:38.237Z,3.17
2023-03-17T14:53:04.650Z,3.19
2023-03-17T14:55:31.168Z,2.93
2023-03-17T14:57:57.613Z,3.44
2023-03-17T15:00:23.956Z,3.37
2023-03-17T15:02:50.324Z,3.09
2023-03-17T15:05:16.746Z,2.91
2023-03-17T15:07:43.181Z,2.73
2023-03-17T15:10:09.573Z,2.81
2023-03-17T15:12:35.912Z,2.78
2023-03-17T15:15:02.250Z,2.99
2023-03-17T15:17:28.735Z,3.64
2023-03-17T15:19:55.121Z,3.21
2023-03-17T15:22:21.485Z,3.17
2023-03-17T15:24:47.867Z,3.14
2023-03-17T15:27:14.277Z,3.26
2023-03-17T15:29:40.634Z,3.45
2023-03-17T15:32:06.972Z,3.25
2023-03-17T15:34:33.332Z,3.18
2023-03-17T15:36:59.703Z,3.24
2023-03-17T15:39:26.076Z,3.09
2023-03-17T15:41:52.404Z,3.28
2023-03-17T15:44:18.800Z,3.45
2023-03-17T15:46:45.201Z,3.55
2023-03-17T15:49:11.777Z,3.38
2023-03-17T15:51:38.234Z,3.34
2023-03-17T15:54:04.595Z,3.07
2023-03-17T15:56:30.971Z,3.21
2023-03-17T15:58:57.355Z,2.92
2023-03-17T16:01:25.802Z,2.89
2023-03-17T16:03:54.147Z,2.97
2023-03-17T16:06:20.564Z,3.15
2023-03-17T16:08:46.991Z,3.17
2023-03-17T16:11:13.428Z,3.19
2023-03-17T16:13:39.852Z,3.32
2023-03-17T16:16:06.292Z,3.23
2023-03-17T16:18:32.680Z,3.61
2023-03-17T16:20:59.218Z,3.48
2023-03-17T16:23:25.640Z,3.73
2023-03-17T16:25:53.947Z,3.51
2023-03-17T16:28:21.904Z,3.23
2023-03-17T16:30:48.304Z,3.06
2023-03-17T16:33:14.714Z,3.14
2023-03-17T16:35:41.114Z,3.25
2023-03-17T16:38:07.729Z,3.33
2023-03-17T16:40:34.227Z,3.51
2023-03-17T16:43:00.785Z,3.14
2023-03-17T16:45:27.137Z,3.04
2023-03-17T16:47:53.474Z,3.26
2023-03-17T16:50:19.857Z,3.70
2023-03-17T16:52:46.276Z,3.55
2023-03-17T16:55:12.656Z,3.67
2023-03-17T16:57:39.002Z,3.57
2023-03-17T17:00:05.399Z,3.16
2023-03-17T17:02:31.842Z,3.56
2023-03-17T17:04:58.199Z,3.61
2023-03-17T17:07:24.549Z,3.26
2023-03-17T17:09:50.948Z,3.47
2023-03-17T17:12:17.361Z,3.34
2023-03-17T17:14:43.742Z,3.42
2023-03-17T17:17:10.161Z,3.45
2023-03-17T17:19:36.594Z,3.48
2023-03-17T17:22:04.075Z,3.44
2023-03-17T17:24:30.403Z,3.49
2023-03-17T17:26:56.821Z,3.41
2023-03-17T17:29:23.190Z,3.34
2023-03-17T17:31:49.671Z,3.65
2023-03-17T17:34:16.104Z,3.68
2023-03-17T17:36:42.487Z,3.86
2023-03-17T17:39:08.945Z,3.46
2023-03-17T17:41:35.343Z,3.47
2023-03-17T17:44:01.724Z,3.98
2023-03-17T17:46:28.209Z,3.90
2023-03-17T17:48:54.579Z,3.47
2023-03-17T17:51:20.994Z,3.81
2023-03-17T17:53:47.404Z,4.20
2023-03-17T17:56:13.734Z,4.42
2023-03-17T17:58:40.123Z,3.32
2023-03-17T18:01:06.450Z,3.52
2023-03-17T18:03:32.870Z,3.38
2023-03-17T18:05:59.302Z,3.49
2023-03-17T18:08:25.658Z,4.25
2023-03-17T18:10:52.415Z,4.80
2023-03-17T18:13:18.887Z,5.95
2023-03-17T18:15:45.360Z,3.37
2023-03-17T18:18:13.099Z,3.62
2023-03-17T18:20:39.463Z,3.52
2023-03-17T18:23:05.825Z,4.25
2023-03-17T18:25:32.203Z,3.24
2023-03-17T18:27:58.628Z,2.54
2023-03-17T18:30:25.006Z,2.99
2023-03-17T18:32:51.497Z,3.26
2023-03-17T18:35:17.927Z,2.83
2023-03-17T18:37:44.307Z,2.33
2023-03-17T18:40:15.095Z,2.34
2023-03-17T18:42:46.289Z,2.67
2023-03-17T18:45:12.645Z,2.72
2023-03-17T18:47:39.150Z,3.30
2023-03-17T18:50:05.546Z,4.44
2023-03-17T18:52:32.012Z,4.53
2023-03-17T18:54:58.445Z,3.83
2023-03-17T18:57:24.851Z,3.00
2023-03-17T18:59:51.250Z,2.86
2023-03-17T19:02:17.615Z,3.24
2023-03-17T19:04:44.019Z,3.53
2023-03-17T19:07:10.382Z,3.78
2023-03-17T19:09:36.798Z,3.07
2023-03-17T19:12:03.277Z,2.57
2023-03-17T19:14:29.720Z,2.35
2023-03-17T19:16:56.169Z,2.54
2023-03-17T19:19:22.569Z,4.85
2023-03-17T19:21:49.001Z,2.75
2023-03-17T19:24:15.388Z,2.43
2023-03-17T19:26:41.761Z,2.53
2023-03-17T19:29:08.092Z,2.70
2023-03-17T19:31:34.583Z,4.30
2023-03-17T19:34:00.952Z,4.34
2023-03-17T19:36:27.358Z,4.50
2023-03-17T19:38:53.801Z,3.36
2023-03-17T19:41:20.220Z,3.30
2023-03-17T19:43:46.592Z,3.49
2023-03-17T19:46:13.029Z,3.05
2023-03-17T19:48:39.451Z,3.34
2023-03-17T19:51:10.258Z,3.16
2023-03-17T19:53:36.642Z,2.96
2023-03-17T19:56:03.078Z,2.70
2023-03-17T19:58:29.577Z,3.05
2023-03-17T20:00:55.997Z,3.53
2023-03-17T20:03:24.306Z,3.77
2023-03-17T20:05:52.485Z,3.42
2023-03-17T20:08:20.150Z,3.55
2023-03-17T20:10:46.522Z,2.64
2023-03-17T20:13:13.039Z,2.36
2023-03-17T20:15:39.472Z,3.04
2023-03-17T20:18:06.131Z,3.51
2023-03-17T20:20:32.831Z,8.21
2023-03-17T20:22:59.423Z,7.47
2023-03-17T20:25:25.865Z,5.56
2023-03-17T20:27:52.283Z,4.34
2023-03-17T20:30:18.814Z,5.28
2023-03-17T20:32:45.315Z,3.64
2023-03-17T20:35:12.810Z,3.09
2023-03-17T20:37:39.287Z,2.73
2023-03-17T20:40:05.732Z,2.50
2023-03-17T20:42:32.219Z,1.92
2023-03-17T20:44:58.631Z,1.93
2023-03-17T20:47:25.027Z,2.23
2023-03-17T20:49:51.473Z,2.26
2023-03-17T20:52:17.976Z,1.94
2023-03-17T20:54:46.478Z,2.36
2023-03-17T20:57:12.920Z,3.40
2023-03-17T20:59:39.309Z,2.71
2023-03-17T21:02:05.869Z,2.35
2023-03-17T21:04:32.353Z,2.93
2023-03-17T21:07:00.177Z,4.06
2023-03-17T21:09:26.579Z,3.61
2023-03-17T21:11:54.252Z,2.82
2023-03-17T21:14:20.696Z,3.04
2023-03-17T21:16:47.132Z,3.41
2023-03-17T21:19:13.621Z,3.49
2023-03-17T21:21:40.011Z,3.39
2023-03-17T21:24:06.442Z,3.57
2023-03-17T21:26:32.793Z,3.79
2023-03-17T21:28:59.228Z,3.96
2023-03-17T21:31:25.664Z,4.59
2023-03-17T21:33:53.123Z,4.25
2023-03-17T21:36:19.507Z,3.75
2023-03-17T21:38:45.966Z,3.12
2023-03-17T21:41:12.404Z,3.13
2023-03-17T21:43:38.793Z,4.08
2023-03-17T21:46:05.254Z,5.41
2023-03-17T21:48:31.767Z,6.35
2023-03-17T21:50:58.135Z,4.66
2023-03-17T21:53:24.537Z,3.74
2023-03-17T21:55:50.967Z,2.65
2023-03-17T21:58:18.429Z,2.34
2023-03-17T22:00:46.186Z,2.54
2023-03-17T22:03:12.775Z,2.93
2023-03-17T22:05:39.187Z,2.67
2023-03-17T22:08:05.613Z,2.39
2023-03-17T22:10:32.418Z,2.78
2023-03-17T22:12:58.997Z,3.11
2023-03-17T22:15:25.429Z,3.70
2023-03-17T22:17:51.881Z,3.67
2023-03-17T22:20:18.326Z,3.44
2023-03-17T22:22:44.710Z,2.68
2023-03-17T22:25:11.132Z,2.72
2023-03-17T22:27:37.526Z,3.57
2023-03-17T22:30:03.969Z,4.14
2023-03-17T22:32:30.402Z,4.35
2023-03-17T22:34:56.873Z,4.17
2023-03-17T22:37:23.260Z,4.12
2023-03-17T22:39:49.711Z,3.52
2023-03-17T22:42:16.074Z,2.60
2023-03-17T22:44:42.518Z,2.30
2023-03-17T22:47:08.932Z,2.09
2023-03-17T22:49:35.330Z,2.33
2023-03-17T22:52:01.668Z,2.31
2023-03-17T22:54:28.043Z,2.42
2023-03-17T22:56:54.432Z,3.24
2023-03-17T22:59:20.835Z,3.11
2023-03-17T23:01:47.209Z,3.42
2023-03-17T23:04:13.677Z,3.21
2023-03-17T23:06:40.241Z,2.55
2023-03-17T23:09:06.630Z,2.26
2023-03-17T23:11:33.015Z,2.16
2023-03-17T23:13:59.402Z,2.13
2023-03-17T23:16:25.843Z,2.28
2023-03-17T23:18:52.232Z,2.53
2023-03-17T23:21:18.603Z,2.63
2023-03-17T23:23:44.960Z,2.64
2023-03-17T23:26:11.400Z,2.73
2023-03-17T23:28:37.726Z,3.13
2023-03-17T23:31:04.130Z,3.39
2023-03-17T23:33:30.547Z,3.44
2023-03-17T23:35:56.953Z,3.75
2023-03-17T23:38:23.346Z,3.47
2023-03-17T23:40:49.763Z,2.25
2023-03-17T23:43:16.242Z,2.43
2023-03-17T23:45:42.651Z,2.40
2023-03-17T23:48:09.013Z,2.54
2023-03-17T23:50:35.378Z,2.58
2023-03-17T23:53:01.735Z,3.20
2023-03-17T23:55:28.069Z,4.24
2023-03-17T23:57:54.403Z,4.39
